Terminal Aerodrome Forecast
Issued by NWS

Home | Current Version | Previous Version | Text Only | Print | Product List | Glossary On
Versions: 1 2 3 4 5 6 7 8 9 10 11 12 13 14 15 16 17 18 19 20 21 22 23 24 25 26 27 28 29 30 31 32 33 34
000
FTUS45 KBOU 241738
TAFBJC
TAF
KBJC 241738Z 2418/2518 VRB05KT P6SM SCT015 BKN022 BKN040
      TEMPO 2418/2421 5SM -SN BR BKN015
     FM242100 06008KT P6SM SCT020 BKN030
      TEMPO 2421/2501 2SM -SHSN BKN012
     FM250200 08006KT P6SM SCT025 BKN050
     FM250600 30006KT P6SM FEW070=

USA.gov is the U.S. government's official web portal to all federal, state and local government web resources and services.